createdAt,value
2022-11-08T00:01:44.713Z,4.75
2022-11-08T00:08:31.073Z,4.77
2022-11-08T00:12:01.548Z,4.74
2022-11-08T00:15:19.864Z,4.72
2022-11-08T00:18:36.073Z,4.65
2022-11-08T00:21:52.240Z,4.62
2022-11-08T00:25:09.271Z,4.60
2022-11-08T00:28:27.743Z,4.58
2022-11-08T00:31:44.068Z,4.55
2022-11-08T00:35:01.287Z,4.58
2022-11-08T00:38:20.487Z,4.61
2022-11-08T00:41:35.899Z,4.51
2022-11-08T00:44:51.912Z,4.42
2022-11-08T00:48:08.075Z,4.42
2022-11-08T00:51:25.527Z,4.44
2022-11-08T00:54:42.054Z,4.42
2022-11-08T00:57:59.936Z,4.39
2022-11-08T01:01:27.203Z,4.34
2022-11-08T01:04:43.889Z,4.31
2022-11-08T01:08:03.461Z,4.29
2022-11-08T01:11:23.893Z,4.27
2022-11-08T01:14:41.802Z,4.30
2022-11-08T01:17:58.099Z,4.29
2022-11-08T01:21:15.323Z,4.29
2022-11-08T01:24:32.860Z,4.25
2022-11-08T01:27:49.198Z,4.20
2022-11-08T01:31:07.344Z,4.17
2022-11-08T01:34:23.976Z,4.15
2022-11-08T01:37:40.665Z,4.13
2022-11-08T01:40:58.526Z,4.12
2022-11-08T01:44:22.471Z,4.08
2022-11-08T01:47:38.895Z,4.08
2022-11-08T01:50:55.242Z,4.08
2022-11-08T01:54:15.533Z,4.01
2022-11-08T01:57:36.844Z,3.97
2022-11-08T02:00:53.452Z,3.94
2022-11-08T02:04:11.262Z,3.92
2022-11-08T02:07:28.146Z,3.91
2022-11-08T02:10:48.287Z,3.92
2022-11-08T02:14:05.799Z,3.93
2022-11-08T02:17:22.524Z,3.83
2022-11-08T02:20:39.947Z,3.82
2022-11-08T02:23:58.590Z,3.84
2022-11-08T02:27:15.061Z,3.87
2022-11-08T02:30:31.969Z,3.91
2022-11-08T02:33:49.575Z,3.83
2022-11-08T02:37:16.369Z,3.77
2022-11-08T02:40:32.515Z,3.78
2022-11-08T02:43:48.751Z,3.78
2022-11-08T02:47:08.101Z,3.75
2022-11-08T02:50:24.986Z,3.70
2022-11-08T02:53:41.835Z,3.69
2022-11-08T02:56:58.685Z,3.66
2022-11-08T03:00:21.106Z,3.66
2022-11-08T03:03:38.643Z,3.63
2022-11-08T03:06:54.942Z,3.64
2022-11-08T03:10:12.255Z,3.61
2022-11-08T03:13:29.298Z,3.62
2022-11-08T03:16:48.415Z,3.65
2022-11-08T03:20:04.570Z,3.61
2022-11-08T03:23:21.480Z,3.58
2022-11-08T03:26:38.978Z,3.56
2022-11-08T03:29:56.069Z,3.56
2022-11-08T03:33:12.720Z,3.47
2022-11-08T03:36:29.103Z,3.43
2022-11-08T03:39:45.736Z,3.46
2022-11-08T03:43:15.477Z,3.45
2022-11-08T03:46:32.526Z,3.40
2022-11-08T03:49:49.272Z,3.40
2022-11-08T03:53:07.985Z,3.42
2022-11-08T03:56:24.226Z,3.43
2022-11-08T03:59:40.305Z,3.44
2022-11-08T04:02:57.167Z,3.43
2022-11-08T04:06:15.262Z,3.35
2022-11-08T04:09:33.066Z,3.36
2022-11-08T04:13:05.149Z,3.39
2022-11-08T04:16:21.754Z,3.35
2022-11-08T04:19:55.285Z,3.33
2022-11-08T04:23:13.420Z,3.34
2022-11-08T04:26:32.136Z,3.36
2022-11-08T04:29:48.249Z,3.36
2022-11-08T04:33:07.973Z,3.34
2022-11-08T04:36:26.134Z,3.29
2022-11-08T04:39:42.735Z,3.29
2022-11-08T04:42:59.188Z,3.31
2022-11-08T04:46:18.450Z,3.31
2022-11-08T04:49:35.858Z,3.31
2022-11-08T04:52:57.977Z,3.28
2022-11-08T04:56:17.849Z,3.27
2022-11-08T04:59:34.879Z,3.29
2022-11-08T05:02:52.316Z,3.28
2022-11-08T05:06:13.882Z,3.24
2022-11-08T05:09:30.305Z,3.22
2022-11-08T05:12:46.648Z,3.23
2022-11-08T05:16:04.752Z,3.21
2022-11-08T05:19:25.950Z,3.15
2022-11-08T05:22:56.538Z,3.09
2022-11-08T05:26:14.000Z,3.08
2022-11-08T05:29:31.268Z,3.05
2022-11-08T05:32:47.877Z,2.99
2022-11-08T05:36:07.901Z,3.01
2022-11-08T05:39:28.258Z,2.99
2022-11-08T05:42:43.540Z,3.02
2022-11-08T05:46:00.565Z,2.99
2022-11-08T05:49:17.818Z,2.96
2022-11-08T05:52:35.239Z,2.96
2022-11-08T05:55:51.606Z,2.97
2022-11-08T05:59:08.009Z,3.03
2022-11-08T06:02:26.669Z,3.05
2022-11-08T06:05:45.688Z,3.10
2022-11-08T06:09:02.266Z,3.08
2022-11-08T06:12:19.229Z,3.07
2022-11-08T06:15:36.803Z,3.03
2022-11-08T06:18:53.810Z,3.06
2022-11-08T06:22:11.370Z,3.14
2022-11-08T06:25:29.407Z,3.23
2022-11-08T06:28:47.676Z,3.50
2022-11-08T06:32:05.251Z,4.01
2022-11-08T06:35:21.513Z,4.56
2022-11-08T06:38:38.492Z,5.26
2022-11-08T06:41:54.841Z,5.83
2022-11-08T06:45:12.057Z,6.36
2022-11-08T06:48:35.028Z,6.51
2022-11-08T06:51:49.842Z,6.77
2022-11-08T06:55:06.291Z,6.79
2022-11-08T06:58:22.796Z,6.79
2022-11-08T07:01:44.552Z,6.71
2022-11-08T07:04:57.916Z,6.77
2022-11-08T07:08:15.333Z,6.83
2022-11-08T07:11:33.192Z,7.01
2022-11-08T07:14:49.440Z,7.08
2022-11-08T07:18:10.221Z,7.31
2022-11-08T07:21:30.518Z,7.53
2022-11-08T07:24:47.251Z,7.72
2022-11-08T07:28:08.078Z,7.66
2022-11-08T07:31:24.604Z,7.60
2022-11-08T07:34:43.521Z,7.55
2022-11-08T07:38:01.523Z,7.51
2022-11-08T07:41:19.409Z,7.48
2022-11-08T07:44:37.030Z,7.39
2022-11-08T07:47:57.730Z,7.38
2022-11-08T07:51:14.477Z,7.43
2022-11-08T07:54:31.303Z,7.53
2022-11-08T07:57:47.552Z,7.67
2022-11-08T08:01:09.611Z,7.74
2022-11-08T08:04:27.225Z,7.90
2022-11-08T08:07:46.123Z,8.26
2022-11-08T08:11:06.619Z,8.71
2022-11-08T08:14:22.771Z,9.19
2022-11-08T08:17:40.030Z,9.36
2022-11-08T08:20:56.355Z,9.46
2022-11-08T08:24:14.139Z,9.60
2022-11-08T08:27:31.308Z,9.77
2022-11-08T08:30:48.182Z,9.92
2022-11-08T08:34:04.379Z,10.08
2022-11-08T08:37:21.619Z,10.17
2022-11-08T08:40:38.887Z,10.26
2022-11-08T08:43:55.331Z,10.33
2022-11-08T08:47:18.456Z,10.46
2022-11-08T08:50:39.370Z,10.61
2022-11-08T08:53:56.041Z,10.76
2022-11-08T08:57:12.210Z,10.92
2022-11-08T09:04:17.178Z,11.11
2022-11-08T09:07:48.999Z,11.25
2022-11-08T09:11:13.348Z,11.23
2022-11-08T09:14:29.702Z,11.43
2022-11-08T09:17:45.842Z,11.68
2022-11-08T09:21:05.256Z,11.89
2022-11-08T09:24:22.642Z,12.04
2022-11-08T09:27:39.803Z,12.19
2022-11-08T09:30:57.175Z,12.32
2022-11-08T09:34:15.197Z,12.52
2022-11-08T09:37:31.775Z,12.64
2022-11-08T09:40:57.055Z,12.81
2022-11-08T09:44:39.010Z,12.96
2022-11-08T09:48:03.074Z,13.08
2022-11-08T09:51:21.658Z,13.19
2022-11-08T09:54:39.336Z,13.34
2022-11-08T09:58:25.132Z,13.56
2022-11-08T10:01:44.143Z,13.77
2022-11-08T10:05:06.030Z,13.90
2022-11-08T10:08:29.138Z,14.02
2022-11-08T10:12:05.397Z,14.20
2022-11-08T10:15:33.568Z,14.38
2022-11-08T10:19:18.068Z,14.46
2022-11-08T10:25:54.835Z,14.63
2022-11-08T10:29:16.289Z,14.71
2022-11-08T10:32:35.866Z,14.77
2022-11-08T10:36:02.491Z,14.88
2022-11-08T10:39:26.580Z,14.92
2022-11-08T10:42:50.153Z,14.98
2022-11-08T10:46:06.791Z,15.04
2022-11-08T10:49:30.728Z,15.12
2022-11-08T10:52:53.232Z,15.17
2022-11-08T10:56:13.885Z,15.16
2022-11-08T10:59:41.195Z,15.16
2022-11-08T11:03:01.355Z,15.15
2022-11-08T11:06:33.417Z,15.16
2022-11-08T11:09:52.166Z,15.18
2022-11-08T11:13:17.848Z,15.20
2022-11-08T11:16:34.324Z,15.22
2022-11-08T11:20:00.767Z,15.21
2022-11-08T11:23:19.703Z,15.22
2022-11-08T11:26:43.478Z,15.22
2022-11-08T11:30:11.995Z,15.23
2022-11-08T11:33:35.333Z,15.23
2022-11-08T11:36:56.673Z,15.21
2022-11-08T11:40:29.221Z,15.20
2022-11-08T11:43:58.948Z,15.23
2022-11-08T11:47:20.686Z,15.19
2022-11-08T11:50:42.309Z,15.22
2022-11-08T11:53:59.031Z,15.22
2022-11-08T11:57:20.661Z,15.24
2022-11-08T12:00:36.997Z,15.24
2022-11-08T12:04:13.411Z,15.22
2022-11-08T12:07:35.964Z,15.19
2022-11-08T12:11:20.381Z,15.17
2022-11-08T12:14:56.857Z,15.17
2022-11-08T12:18:44.411Z,15.16
2022-11-08T12:22:04.848Z,15.15
2022-11-08T12:25:28.561Z,15.12
2022-11-08T12:29:00.844Z,15.11
2022-11-08T12:32:40.972Z,15.16
2022-11-08T12:39:23.812Z,15.12
2022-11-08T12:43:10.930Z,15.12
2022-11-08T12:46:28.688Z,15.09
2022-11-08T12:49:52.193Z,15.03
2022-11-08T12:53:35.076Z,15.01
2022-11-08T12:56:54.037Z,14.97
2022-11-08T13:00:20.219Z,14.94
2022-11-08T13:04:05.839Z,14.93
2022-11-08T13:10:47.728Z,14.91
2022-11-08T13:14:05.764Z,14.93
2022-11-08T13:17:31.354Z,14.92
2022-11-08T13:24:44.330Z,14.85
2022-11-08T13:27:57.305Z,14.86
2022-11-08T13:31:47.865Z,14.82
2022-11-08T13:35:10.705Z,14.83
2022-11-08T13:38:36.816Z,14.85
2022-11-08T13:42:12.853Z,14.85
2022-11-08T13:45:40.953Z,14.87
2022-11-08T13:49:11.410Z,14.84
2022-11-08T13:52:52.259Z,14.83
2022-11-08T13:56:27.007Z,14.81
2022-11-08T14:00:04.398Z,14.80
2022-11-08T14:04:02.785Z,14.77
2022-11-08T14:07:25.453Z,14.74
2022-11-08T14:10:47.808Z,14.69
2022-11-08T14:14:49.752Z,14.69
2022-11-08T14:18:10.365Z,14.66
2022-11-08T14:24:44.854Z,14.63
2022-11-08T14:28:01.248Z,14.60
2022-11-08T14:31:32.262Z,14.59
2022-11-08T14:34:48.667Z,14.56
2022-11-08T14:38:05.570Z,14.54
2022-11-08T14:41:27.679Z,14.35
2022-11-08T14:44:45.189Z,14.17
2022-11-08T14:48:07.345Z,13.92
2022-11-08T14:51:23.856Z,13.70
2022-11-08T14:54:49.692Z,13.54
2022-11-08T14:58:19.475Z,13.35
2022-11-08T15:01:37.238Z,13.15
2022-11-08T15:04:53.855Z,13.01
2022-11-08T15:08:15.935Z,12.87
2022-11-08T15:11:39.034Z,12.73
2022-11-08T15:15:04.468Z,12.62
2022-11-08T15:18:27.184Z,12.49
2022-11-08T15:21:47.611Z,12.36
2022-11-08T15:25:28.339Z,12.21
2022-11-08T15:28:44.702Z,12.04
2022-11-08T15:32:04.434Z,11.88
2022-11-08T15:35:37.688Z,11.74
2022-11-08T15:38:56.987Z,11.61
2022-11-08T15:43:10.274Z,11.43
2022-11-08T15:47:16.694Z,11.21
2022-11-08T15:50:41.007Z,10.99
2022-11-08T15:53:57.800Z,10.93
2022-11-08T15:57:15.915Z,10.83
2022-11-08T16:00:39.196Z,10.65
2022-11-08T16:03:56.581Z,10.57
2022-11-08T16:07:12.865Z,10.48
2022-11-08T16:10:35.983Z,10.38
2022-11-08T16:13:53.649Z,10.30
2022-11-08T16:17:10.827Z,10.23
2022-11-08T16:20:33.722Z,10.16
2022-11-08T16:23:50.503Z,10.02
2022-11-08T16:27:09.851Z,9.97
2022-11-08T16:30:29.910Z,9.86
2022-11-08T16:33:46.937Z,9.78
2022-11-08T16:37:04.236Z,9.71
2022-11-08T16:40:32.211Z,9.63
2022-11-08T16:43:48.558Z,9.59
2022-11-08T16:47:04.782Z,9.55
2022-11-08T16:50:28.864Z,9.54
2022-11-08T16:53:45.476Z,9.48
2022-11-08T16:57:28.288Z,9.37
2022-11-08T17:00:24.753Z,9.27
2022-11-08T17:03:42.625Z,9.18
2022-11-08T17:07:01.610Z,9.14
2022-11-08T17:10:25.112Z,9.15
2022-11-08T17:13:41.097Z,9.11
2022-11-08T17:16:57.235Z,9.06
2022-11-08T17:20:15.861Z,9.02
2022-11-08T17:23:32.094Z,8.99
2022-11-08T17:26:50.442Z,8.98
2022-11-08T17:30:07.345Z,8.90
2022-11-08T17:33:23.508Z,8.78
2022-11-08T17:36:39.404Z,8.71
2022-11-08T17:39:56.210Z,8.68
2022-11-08T17:43:14.199Z,8.55
2022-11-08T17:46:31.730Z,8.37
2022-11-08T17:49:47.999Z,8.28
2022-11-08T17:53:04.654Z,8.17
2022-11-08T17:56:22.752Z,8.10
2022-11-08T17:59:39.221Z,7.99
2022-11-08T18:02:55.427Z,7.97
2022-11-08T18:06:14.976Z,8.00
2022-11-08T18:09:29.313Z,7.96
2022-11-08T18:12:45.849Z,7.94
2022-11-08T18:16:03.799Z,7.85
2022-11-08T18:19:20.395Z,7.83
2022-11-08T18:22:36.918Z,7.81
2022-11-08T18:25:57.421Z,7.75
2022-11-08T18:29:14.320Z,7.67
2022-11-08T18:32:31.180Z,7.65
2022-11-08T18:35:47.709Z,7.58
2022-11-08T18:39:06.529Z,7.56
2022-11-08T18:42:22.676Z,7.58
2022-11-08T18:45:39.559Z,7.55
2022-11-08T18:48:56.760Z,7.54
2022-11-08T18:52:14.121Z,7.56
2022-11-08T18:55:35.092Z,7.51
2022-11-08T18:58:53.278Z,7.47
2022-11-08T19:02:09.475Z,7.46
2022-11-08T19:05:25.999Z,7.52
2022-11-08T19:08:42.904Z,7.44
2022-11-08T19:12:04.600Z,7.32
2022-11-08T19:15:19.321Z,7.28
2022-11-08T19:18:38.361Z,7.27
2022-11-08T19:21:54.761Z,7.26
2022-11-08T19:25:12.356Z,7.22
2022-11-08T19:28:32.810Z,7.21
2022-11-08T19:31:48.737Z,7.21
2022-11-08T19:35:05.293Z,7.16
2022-11-08T19:38:23.905Z,7.08
2022-11-08T19:41:40.248Z,7.01
2022-11-08T19:44:56.626Z,6.94
2022-11-08T19:48:14.438Z,6.91
2022-11-08T19:51:33.649Z,6.86
2022-11-08T19:54:51.789Z,6.80
2022-11-08T19:58:09.862Z,6.87
2022-11-08T20:01:30.906Z,6.78
2022-11-08T20:04:47.712Z,6.76
2022-11-08T20:08:05.818Z,6.66
2022-11-08T20:11:24.972Z,6.57
2022-11-08T20:14:41.489Z,6.54
2022-11-08T20:17:57.884Z,6.51
2022-11-08T20:21:17.293Z,6.51
2022-11-08T20:24:31.233Z,6.43
2022-11-08T20:27:47.135Z,6.41
2022-11-08T20:31:11.293Z,6.38
2022-11-08T20:34:29.789Z,6.30
2022-11-08T20:37:46.330Z,6.29
2022-11-08T20:41:05.267Z,6.17
2022-11-08T20:44:23.580Z,6.17
2022-11-08T20:47:41.147Z,6.12
2022-11-08T20:50:58.152Z,6.07
2022-11-08T20:54:17.008Z,5.95
2022-11-08T20:57:34.167Z,5.96
2022-11-08T21:00:58.195Z,5.95
2022-11-08T21:04:12.478Z,5.88
2022-11-08T21:10:49.078Z,5.80
2022-11-08T21:14:05.989Z,5.69
2022-11-08T21:17:22.783Z,5.74
2022-11-08T21:20:39.521Z,5.66
2022-11-08T21:23:57.304Z,5.63
2022-11-08T21:27:15.530Z,5.58
2022-11-08T21:30:32.164Z,5.55
2022-11-08T21:33:51.707Z,5.55
2022-11-08T21:37:06.051Z,5.48
2022-11-08T21:40:23.069Z,5.41
2022-11-08T21:43:43.799Z,5.43
2022-11-08T21:47:00.117Z,5.38
2022-11-08T21:50:17.823Z,5.33
2022-11-08T21:53:34.209Z,5.22
2022-11-08T21:56:50.453Z,5.21
2022-11-08T22:00:06.865Z,5.19
2022-11-08T22:03:23.756Z,5.17
2022-11-08T22:06:44.911Z,5.16
2022-11-08T22:09:58.703Z,5.08
2022-11-08T22:13:15.051Z,5.08
2022-11-08T22:16:31.182Z,5.07
2022-11-08T22:19:47.644Z,5.04
2022-11-08T22:23:08.813Z,4.95
2022-11-08T22:26:23.232Z,4.95
2022-11-08T22:29:39.524Z,4.85
2022-11-08T22:32:55.850Z,4.85
2022-11-08T22:36:12.657Z,4.82
2022-11-08T22:39:31.323Z,4.87
2022-11-08T22:42:47.733Z,4.85
2022-11-08T22:46:04.089Z,4.76
2022-11-08T22:49:23.646Z,4.70
2022-11-08T22:52:39.840Z,4.70
2022-11-08T22:55:56.096Z,4.68
2022-11-08T22:59:13.518Z,4.61
2022-11-08T23:02:33.221Z,4.60
2022-11-08T23:05:48.800Z,4.59
2022-11-08T23:09:05.662Z,4.52
2022-11-08T23:12:38.281Z,4.53
2022-11-08T23:16:08.499Z,4.49
2022-11-08T23:19:41.765Z,4.44
2022-11-08T23:26:16.475Z,4.44
2022-11-08T23:29:46.707Z,4.39
2022-11-08T23:33:06.092Z,4.35
2022-11-08T23:36:21.060Z,4.43
2022-11-08T23:39:40.088Z,4.44
2022-11-08T23:43:23.170Z,4.41
2022-11-08T23:46:39.368Z,4.38
2022-11-08T23:49:55.843Z,4.32
2022-11-08T23:53:14.449Z,4.33
2022-11-08T23:56:33.307Z,4.30
2022-11-08T23:59:49.563Z,4.24
